createdAt,value
2022-08-27T00:01:20.986Z,100.00
2022-08-27T00:03:47.839Z,100.00
2022-08-27T00:06:19.344Z,100.00
2022-08-27T00:08:47.438Z,100.00
2022-08-27T00:11:16.879Z,100.00
2022-08-27T00:13:44.360Z,100.00
2022-08-27T00:16:13.428Z,100.00
2022-08-27T00:18:41.781Z,100.00
2022-08-27T00:21:09.004Z,100.00
2022-08-27T00:23:36.898Z,100.00
2022-08-27T00:26:05.122Z,100.00
2022-08-27T00:28:32.602Z,100.00
2022-08-27T00:31:00.053Z,100.00
2022-08-27T00:33:28.457Z,100.00
2022-08-27T00:35:55.586Z,100.00
2022-08-27T00:38:23.803Z,100.00
2022-08-27T00:40:51.541Z,100.00
2022-08-27T00:43:29.321Z,100.00
2022-08-27T00:46:14.934Z,100.00
2022-08-27T00:48:41.676Z,100.00
2022-08-27T00:51:08.470Z,100.00
2022-08-27T00:53:36.211Z,100.00
2022-08-27T00:56:23.355Z,100.00
2022-08-27T00:58:53.064Z,100.00
2022-08-27T01:01:27.569Z,100.00
2022-08-27T01:03:58.721Z,100.00
2022-08-27T01:06:31.174Z,100.00
2022-08-27T01:09:12.016Z,100.00
2022-08-27T01:11:39.002Z,100.00
2022-08-27T01:14:06.129Z,100.00
2022-08-27T01:16:40.177Z,100.00
2022-08-27T01:19:13.110Z,100.00
2022-08-27T01:22:10.318Z,100.00
2022-08-27T01:24:51.008Z,100.00
2022-08-27T01:27:24.868Z,100.00
2022-08-27T01:29:51.757Z,100.00
2022-08-27T01:32:22.558Z,100.00
2022-08-27T01:34:52.438Z,100.00
2022-08-27T01:37:24.088Z,100.00
2022-08-27T01:39:52.119Z,100.00
2022-08-27T01:42:23.730Z,100.00
2022-08-27T01:44:56.065Z,100.00
2022-08-27T01:47:30.779Z,100.00
2022-08-27T01:49:59.265Z,100.00
2022-08-27T01:52:28.483Z,100.00
2022-08-27T01:54:56.240Z,100.00
2022-08-27T01:57:26.002Z,100.00
2022-08-27T01:59:54.907Z,100.00
2022-08-27T02:02:22.766Z,100.00
2022-08-27T02:04:51.755Z,100.00
2022-08-27T02:07:18.821Z,100.00
2022-08-27T02:09:45.676Z,100.00
2022-08-27T02:12:12.320Z,100.00
2022-08-27T02:14:39.089Z,100.00
2022-08-27T02:17:05.761Z,100.00
2022-08-27T02:19:32.421Z,100.00
2022-08-27T02:22:00.517Z,100.00
2022-08-27T02:24:30.486Z,100.00
2022-08-27T02:26:57.601Z,100.00
2022-08-27T02:29:25.388Z,100.00
2022-08-27T02:31:52.447Z,100.00
2022-08-27T02:34:19.110Z,100.00
2022-08-27T02:36:45.795Z,100.00
2022-08-27T02:39:12.607Z,100.00
2022-08-27T02:41:39.294Z,100.00
2022-08-27T02:44:10.505Z,100.00
2022-08-27T02:46:41.862Z,100.00
2022-08-27T02:49:09.675Z,100.00
2022-08-27T02:51:37.021Z,100.00
2022-08-27T02:54:03.873Z,100.00
2022-08-27T02:56:30.661Z,100.00
2022-08-27T02:58:57.929Z,100.00
2022-08-27T03:01:24.657Z,100.00
2022-08-27T03:03:51.608Z,100.00
2022-08-27T03:06:18.327Z,100.00
2022-08-27T03:08:53.108Z,100.00
2022-08-27T03:11:25.312Z,100.00
2022-08-27T03:13:53.103Z,100.00
2022-08-27T03:16:19.904Z,100.00
2022-08-27T03:18:46.726Z,100.00
2022-08-27T03:21:22.357Z,100.00
2022-08-27T03:23:49.028Z,100.00
2022-08-27T03:26:16.176Z,100.00
2022-08-27T03:28:43.019Z,100.00
2022-08-27T03:31:22.699Z,100.00
2022-08-27T03:33:49.372Z,100.00
2022-08-27T03:36:16.311Z,100.00
2022-08-27T03:38:43.110Z,100.00
2022-08-27T03:41:10.070Z,100.00
2022-08-27T03:43:36.859Z,100.00
2022-08-27T03:46:03.549Z,100.00
2022-08-27T03:48:31.962Z,100.00
2022-08-27T03:50:59.233Z,100.00
2022-08-27T03:53:29.052Z,100.00
2022-08-27T03:55:57.873Z,100.00
2022-08-27T03:58:24.517Z,100.00
2022-08-27T04:00:51.160Z,100.00
2022-08-27T04:03:18.121Z,100.00
2022-08-27T04:05:45.408Z,100.00
2022-08-27T04:08:13.469Z,100.00
2022-08-27T04:10:43.435Z,100.00
2022-08-27T04:13:10.175Z,100.00
2022-08-27T04:15:40.473Z,100.00
2022-08-27T04:18:07.921Z,100.00
2022-08-27T04:20:35.935Z,100.00
2022-08-27T04:23:03.522Z,100.00
2022-08-27T04:25:30.153Z,100.00
2022-08-27T04:27:58.969Z,100.00
2022-08-27T04:30:25.849Z,100.00
2022-08-27T04:32:52.518Z,100.00
2022-08-27T04:35:19.169Z,100.00
2022-08-27T04:37:45.818Z,100.00
2022-08-27T04:40:12.591Z,100.00
2022-08-27T04:42:39.271Z,100.00
2022-08-27T04:45:08.526Z,100.00
2022-08-27T04:47:36.217Z,100.00
2022-08-27T04:50:05.590Z,100.00
2022-08-27T04:52:32.611Z,100.00
2022-08-27T04:55:03.198Z,100.00
2022-08-27T04:57:29.884Z,100.00
2022-08-27T05:00:00.195Z,100.00
2022-08-27T05:02:26.865Z,100.00
2022-08-27T05:04:53.523Z,100.00
2022-08-27T05:07:20.515Z,100.00
2022-08-27T05:09:47.108Z,100.00
2022-08-27T05:12:13.753Z,100.00
2022-08-27T05:14:40.352Z,100.00
2022-08-27T05:17:06.957Z,100.00
2022-08-27T05:19:33.564Z,100.00
2022-08-27T05:22:00.246Z,100.00
2022-08-27T05:24:26.851Z,100.00
2022-08-27T05:26:53.877Z,100.00
2022-08-27T05:29:20.827Z,100.00
2022-08-27T05:31:47.977Z,100.00
2022-08-27T05:34:16.854Z,100.00
2022-08-27T05:36:51.849Z,100.00
2022-08-27T05:39:18.663Z,100.00
2022-08-27T05:41:45.463Z,100.00
2022-08-27T05:44:40.273Z,100.00
2022-08-27T05:46:58.902Z,100.00
2022-08-27T05:49:25.944Z,100.00
2022-08-27T05:51:52.605Z,100.00
2022-08-27T05:54:19.852Z,100.00
2022-08-27T05:56:47.757Z,100.00
2022-08-27T05:59:34.477Z,100.00
2022-08-27T06:02:07.906Z,100.00
2022-08-27T06:04:34.763Z,100.00
2022-08-27T06:07:01.489Z,100.00
2022-08-27T06:09:29.408Z,100.00
2022-08-27T06:11:58.118Z,100.00
2022-08-27T06:14:25.048Z,100.00
2022-08-27T06:16:51.756Z,100.00
2022-08-27T06:19:18.685Z,100.00
2022-08-27T06:21:45.565Z,100.00
2022-08-27T06:24:13.377Z,100.00
2022-08-27T06:26:42.641Z,100.00
2022-08-27T06:29:12.436Z,100.00
2022-08-27T06:31:40.694Z,100.00
2022-08-27T06:34:09.282Z,100.00
2022-08-27T06:36:38.229Z,100.00
2022-08-27T06:39:06.480Z,100.00
2022-08-27T06:41:36.220Z,100.00
2022-08-27T06:44:06.191Z,100.00
2022-08-27T06:46:37.295Z,100.00
2022-08-27T06:49:04.075Z,100.00
2022-08-27T06:51:33.876Z,100.00
2022-08-27T06:54:04.253Z,100.00
2022-08-27T06:56:33.889Z,100.00
2022-08-27T06:59:04.041Z,100.00
2022-08-27T07:01:36.691Z,100.00
2022-08-27T07:04:07.337Z,100.00
2022-08-27T07:06:36.020Z,100.00
2022-08-27T07:09:06.911Z,100.00
2022-08-27T07:11:34.361Z,100.00
2022-08-27T07:14:01.333Z,100.00
2022-08-27T07:16:30.168Z,100.00
2022-08-27T07:19:00.973Z,100.00
2022-08-27T07:21:33.761Z,100.00
2022-08-27T07:24:04.838Z,100.00
2022-08-27T07:26:36.199Z,100.00
2022-08-27T07:29:08.368Z,100.00
2022-08-27T07:31:38.918Z,100.00
2022-08-27T07:34:06.884Z,100.00
2022-08-27T07:36:38.644Z,100.00
2022-08-27T07:39:05.565Z,100.00
2022-08-27T07:41:33.314Z,100.00
2022-08-27T07:44:19.688Z,100.00
2022-08-27T07:46:49.028Z,100.00
2022-08-27T07:49:19.156Z,100.00
2022-08-27T07:51:46.337Z,98.74
2022-08-27T07:54:12.980Z,99.88
2022-08-27T07:56:39.898Z,98.13
2022-08-27T07:59:06.788Z,97.03
2022-08-27T08:01:34.446Z,96.16
2022-08-27T08:04:01.455Z,93.58
2022-08-27T08:06:30.910Z,91.37
2022-08-27T08:08:59.186Z,88.45
2022-08-27T08:11:26.244Z,86.35
2022-08-27T08:13:52.913Z,82.79
2022-08-27T08:16:21.002Z,81.69
2022-08-27T08:18:47.693Z,80.79
2022-08-27T08:21:15.117Z,82.60
2022-08-27T08:23:42.863Z,81.47
2022-08-27T08:26:12.137Z,81.80
2022-08-27T08:28:40.341Z,81.12
2022-08-27T08:31:07.733Z,81.95
2022-08-27T08:33:35.301Z,79.33
2022-08-27T08:36:13.627Z,76.69
2022-08-27T08:38:41.489Z,74.87
2022-08-27T08:41:42.617Z,71.82
2022-08-27T08:44:26.038Z,68.45
2022-08-27T08:46:58.772Z,64.49
2022-08-27T08:49:42.133Z,62.47
2022-08-27T08:52:30.754Z,58.88
2022-08-27T08:55:12.932Z,60.69
2022-08-27T08:57:49.132Z,60.84
2022-08-27T09:00:16.685Z,58.55
2022-08-27T09:02:50.637Z,59.30
2022-08-27T09:05:17.393Z,60.35
2022-08-27T09:07:48.676Z,59.61
2022-08-27T09:10:28.063Z,54.92
2022-08-27T09:13:01.391Z,55.61
2022-08-27T09:15:32.694Z,53.49
2022-08-27T09:18:14.167Z,52.01
2022-08-27T09:20:46.420Z,51.38
2022-08-27T09:23:37.515Z,50.88
2022-08-27T09:26:07.468Z,48.13
2022-08-27T09:28:59.627Z,48.74
2022-08-27T09:31:26.300Z,51.13
2022-08-27T09:33:59.197Z,52.12
2022-08-27T09:36:25.896Z,53.31
2022-08-27T09:39:07.466Z,52.47
2022-08-27T09:41:45.257Z,50.28
2022-08-27T09:44:17.039Z,49.46
2022-08-27T09:46:54.304Z,48.08
2022-08-27T09:49:21.179Z,49.59
2022-08-27T09:51:48.411Z,49.30
2022-08-27T09:54:38.145Z,47.52
2022-08-27T09:57:06.472Z,46.70
2022-08-27T09:59:53.241Z,46.41
2022-08-27T10:02:23.377Z,48.08
2022-08-27T10:05:01.357Z,50.47
2022-08-27T10:07:53.869Z,50.51
2022-08-27T10:10:42.678Z,50.83
2022-08-27T10:13:47.341Z,50.44
2022-08-27T10:16:38.429Z,53.30
2022-08-27T10:19:42.832Z,54.86
2022-08-27T10:22:35.895Z,54.88
2022-08-27T10:25:05.340Z,56.21
2022-08-27T10:27:50.920Z,58.04
2022-08-27T10:30:21.941Z,57.89
2022-08-27T10:33:04.235Z,58.97
2022-08-27T10:35:48.021Z,58.75
2022-08-27T10:38:31.530Z,56.00
2022-08-27T10:41:06.588Z,54.46
2022-08-27T10:43:35.678Z,54.60
2022-08-27T10:46:20.451Z,55.16
2022-08-27T10:48:58.833Z,54.73
2022-08-27T10:51:31.199Z,55.70
2022-08-27T10:54:22.182Z,56.22
2022-08-27T10:57:40.220Z,55.65
2022-08-27T11:00:19.686Z,57.07
2022-08-27T11:02:54.301Z,58.82
2022-08-27T11:05:26.075Z,58.96
2022-08-27T11:08:19.406Z,60.21
2022-08-27T11:10:50.337Z,59.30
2022-08-27T11:13:35.153Z,59.74
2022-08-27T11:16:13.394Z,60.14
2022-08-27T11:18:51.827Z,59.43
2022-08-27T11:21:51.567Z,59.15
2022-08-27T11:24:34.815Z,59.48
2022-08-27T11:27:08.240Z,60.12
2022-08-27T11:29:37.920Z,59.95
2022-08-27T11:32:36.798Z,59.16
2022-08-27T11:35:52.856Z,60.37
2022-08-27T11:38:43.822Z,56.87
2022-08-27T11:41:44.626Z,56.31
2022-08-27T11:44:19.236Z,50.23
2022-08-27T11:46:49.756Z,48.01
2022-08-27T11:49:36.066Z,48.97
2022-08-27T11:52:08.859Z,50.21
2022-08-27T11:54:51.051Z,50.94
2022-08-27T11:57:34.123Z,50.99
2022-08-27T12:00:13.681Z,51.44
2022-08-27T12:02:41.117Z,51.77
2022-08-27T12:05:26.790Z,51.40
2022-08-27T12:07:53.764Z,50.79
2022-08-27T12:10:31.947Z,49.24
2022-08-27T12:13:12.459Z,48.67
2022-08-27T12:16:06.904Z,49.99
2022-08-27T12:18:42.695Z,50.25
2022-08-27T12:21:39.482Z,51.35
2022-08-27T12:24:26.825Z,51.61
2022-08-27T12:27:02.784Z,49.98
2022-08-27T12:29:49.223Z,47.73
2022-08-27T12:32:33.148Z,43.81
2022-08-27T12:35:15.029Z,41.03
2022-08-27T12:38:03.756Z,40.26
2022-08-27T12:40:41.621Z,40.98
2022-08-27T12:43:26.134Z,42.56
2022-08-27T12:46:09.139Z,43.45
2022-08-27T12:48:44.321Z,44.79
2022-08-27T12:51:40.095Z,43.51
2022-08-27T12:54:07.892Z,43.34
2022-08-27T12:56:40.326Z,44.07
2022-08-27T12:59:22.160Z,43.04
2022-08-27T13:01:57.340Z,44.80
2022-08-27T13:04:27.357Z,45.14
2022-08-27T13:06:54.277Z,46.03
2022-08-27T13:09:32.934Z,46.87
2022-08-27T13:12:01.276Z,47.78
2022-08-27T13:14:35.196Z,46.25
2022-08-27T13:17:13.788Z,45.28
2022-08-27T13:19:51.226Z,45.98
2022-08-27T13:22:26.165Z,47.52
2022-08-27T13:24:59.652Z,44.50
2022-08-27T13:27:32.496Z,42.49
2022-08-27T13:30:10.714Z,43.83
2022-08-27T13:32:45.466Z,43.96
2022-08-27T13:35:12.521Z,43.35
2022-08-27T13:37:51.557Z,44.31
2022-08-27T13:40:32.058Z,44.85
2022-08-27T13:43:08.805Z,44.67
2022-08-27T13:45:44.213Z,44.03
2022-08-27T13:48:12.963Z,44.78
2022-08-27T13:50:49.815Z,46.37
2022-08-27T13:53:41.059Z,45.03
2022-08-27T13:56:07.831Z,45.33
2022-08-27T13:58:36.170Z,46.12
2022-08-27T14:01:14.654Z,45.43
2022-08-27T14:03:51.135Z,44.17
2022-08-27T14:06:35.579Z,42.63
2022-08-27T14:09:22.576Z,40.61
2022-08-27T14:11:49.676Z,40.07
2022-08-27T14:14:18.931Z,39.03
2022-08-27T14:16:57.856Z,40.77
2022-08-27T14:19:36.481Z,40.55
2022-08-27T14:22:04.235Z,41.20
2022-08-27T14:24:31.561Z,41.34
2022-08-27T14:27:06.249Z,42.32
2022-08-27T14:29:32.875Z,44.87
2022-08-27T14:31:59.552Z,45.57
2022-08-27T14:34:26.156Z,45.77
2022-08-27T14:36:54.964Z,46.82
2022-08-27T14:39:26.059Z,44.48
2022-08-27T14:41:53.656Z,41.30
2022-08-27T14:44:21.418Z,40.50
2022-08-27T14:46:48.201Z,41.45
2022-08-27T14:49:20.593Z,43.07
2022-08-27T14:51:48.358Z,43.92
2022-08-27T14:54:14.976Z,44.41
2022-08-27T14:56:41.622Z,45.63
2022-08-27T14:59:10.459Z,45.36
2022-08-27T15:01:38.196Z,45.87
2022-08-27T15:04:06.831Z,44.48
2022-08-27T15:06:33.867Z,43.72
2022-08-27T15:09:00.842Z,43.13
2022-08-27T15:11:32.416Z,39.82
2022-08-27T15:14:00.816Z,38.72
2022-08-27T15:16:40.627Z,38.79
2022-08-27T15:19:13.618Z,39.39
2022-08-27T15:21:41.942Z,39.18
2022-08-27T15:24:25.191Z,42.05
2022-08-27T15:26:54.499Z,41.46
2022-08-27T15:29:21.100Z,42.61
2022-08-27T15:31:47.708Z,42.85
2022-08-27T15:34:14.595Z,42.85
2022-08-27T15:36:41.498Z,41.45
2022-08-27T15:39:11.670Z,43.15
2022-08-27T15:42:05.202Z,45.16
2022-08-27T15:44:26.439Z,46.60
2022-08-27T15:46:53.038Z,48.33
2022-08-27T15:49:19.667Z,48.80
2022-08-27T15:51:46.373Z,49.29
2022-08-27T15:54:13.093Z,46.70
2022-08-27T15:56:43.216Z,45.82
2022-08-27T15:59:09.794Z,44.63
2022-08-27T16:01:38.524Z,43.63
2022-08-27T16:04:06.139Z,44.17
2022-08-27T16:06:34.844Z,43.02
2022-08-27T16:09:02.121Z,42.10
2022-08-27T16:11:29.140Z,42.14
2022-08-27T16:13:56.031Z,43.23
2022-08-27T16:16:29.289Z,43.08
2022-08-27T16:18:56.224Z,44.08
2022-08-27T16:21:22.911Z,44.92
2022-08-27T16:23:49.715Z,45.14
2022-08-27T16:26:17.034Z,46.30
2022-08-27T16:28:45.789Z,47.94
2022-08-27T16:31:13.668Z,48.19
2022-08-27T16:33:43.808Z,50.00
2022-08-27T16:36:12.156Z,50.69
2022-08-27T16:38:39.412Z,50.23
2022-08-27T16:41:07.261Z,50.00
2022-08-27T16:43:34.596Z,49.76
2022-08-27T16:46:02.261Z,49.66
2022-08-27T16:48:48.061Z,50.47
2022-08-27T16:51:25.923Z,50.62
2022-08-27T16:53:52.746Z,50.74
2022-08-27T16:56:20.768Z,51.41
2022-08-27T16:58:52.885Z,53.02
2022-08-27T17:01:22.307Z,52.99
2022-08-27T17:04:08.764Z,52.64
2022-08-27T17:06:39.687Z,53.05
2022-08-27T17:09:07.061Z,53.63
2022-08-27T17:11:36.110Z,54.40
2022-08-27T17:14:04.596Z,54.14
2022-08-27T17:16:33.513Z,55.29
2022-08-27T17:19:02.115Z,54.62
2022-08-27T17:21:30.191Z,55.19
2022-08-27T17:24:02.647Z,56.96
2022-08-27T17:26:33.490Z,55.93
2022-08-27T17:29:00.659Z,55.70
2022-08-27T17:31:33.931Z,57.30
2022-08-27T17:34:00.698Z,56.79
2022-08-27T17:36:29.457Z,58.72
2022-08-27T17:38:57.219Z,58.16
2022-08-27T17:41:31.798Z,59.29
2022-08-27T17:44:22.486Z,58.49
2022-08-27T17:46:50.802Z,59.32
2022-08-27T17:49:18.069Z,59.92
2022-08-27T17:51:50.158Z,59.91
2022-08-27T17:54:34.204Z,60.93
2022-08-27T17:57:03.514Z,61.74
2022-08-27T17:59:30.110Z,63.10
2022-08-27T18:01:57.313Z,63.46
2022-08-27T18:04:24.005Z,64.77
2022-08-27T18:06:50.572Z,65.16
2022-08-27T18:09:17.882Z,65.08
2022-08-27T18:11:46.383Z,64.82
2022-08-27T18:14:13.554Z,66.04
2022-08-27T18:16:48.891Z,65.91
2022-08-27T18:19:15.497Z,68.35
2022-08-27T18:21:46.411Z,67.61
2022-08-27T18:24:14.233Z,67.66
2022-08-27T18:26:40.881Z,67.47
2022-08-27T18:29:07.550Z,67.83
2022-08-27T18:31:34.326Z,67.60
2022-08-27T18:34:02.349Z,68.86
2022-08-27T18:36:29.260Z,67.96
2022-08-27T18:38:55.854Z,66.75
2022-08-27T18:41:23.942Z,66.39
2022-08-27T18:43:50.618Z,65.33
2022-08-27T18:46:20.155Z,67.21
2022-08-27T18:48:49.716Z,67.48
2022-08-27T18:51:19.937Z,64.45
2022-08-27T18:53:48.361Z,63.60
2022-08-27T18:56:20.140Z,63.69
2022-08-27T18:58:49.239Z,63.22
2022-08-27T19:01:20.127Z,60.95
2022-08-27T19:03:51.904Z,60.63
2022-08-27T19:06:20.701Z,61.31
2022-08-27T19:08:49.424Z,61.50
2022-08-27T19:11:19.452Z,62.08
2022-08-27T19:13:50.530Z,63.52
2022-08-27T19:16:33.255Z,63.69
2022-08-27T19:19:00.215Z,63.05
2022-08-27T19:21:27.053Z,63.46
2022-08-27T19:23:54.259Z,63.70
2022-08-27T19:26:24.728Z,63.77
2022-08-27T19:28:52.460Z,64.49
2022-08-27T19:31:19.291Z,64.61
2022-08-27T19:33:46.411Z,64.45
2022-08-27T19:36:17.537Z,64.86
2022-08-27T19:38:45.533Z,65.12
2022-08-27T19:41:13.542Z,65.27
2022-08-27T19:43:44.770Z,65.45
2022-08-27T19:46:21.422Z,65.85
2022-08-27T19:48:48.267Z,66.20
2022-08-27T19:51:15.316Z,66.47
2022-08-27T19:53:42.034Z,67.32
2022-08-27T19:56:13.169Z,66.67
2022-08-27T19:58:42.300Z,65.95
2022-08-27T20:01:10.401Z,65.02
2022-08-27T20:03:37.712Z,65.50
2022-08-27T20:06:04.789Z,65.19
2022-08-27T20:08:31.467Z,65.22
2022-08-27T20:10:58.385Z,65.61
2022-08-27T20:13:25.008Z,65.84
2022-08-27T20:15:52.243Z,65.76
2022-08-27T20:18:21.793Z,65.83
2022-08-27T20:20:48.478Z,65.61
2022-08-27T20:23:18.502Z,65.42
2022-08-27T20:25:45.504Z,66.04
2022-08-27T20:28:37.858Z,66.15
2022-08-27T20:30:59.917Z,66.71
2022-08-27T20:33:27.144Z,69.08
2022-08-27T20:35:56.502Z,68.51
2022-08-27T20:38:23.231Z,69.16
2022-08-27T20:40:50.111Z,69.04
2022-08-27T20:43:16.932Z,68.25
2022-08-27T20:45:43.785Z,67.33
2022-08-27T20:48:11.767Z,66.98
2022-08-27T20:50:38.449Z,67.07
2022-08-27T20:53:05.082Z,66.81
2022-08-27T20:55:31.660Z,66.83
2022-08-27T20:58:18.786Z,66.06
2022-08-27T21:00:45.699Z,66.36
2022-08-27T21:03:13.969Z,66.49
2022-08-27T21:05:42.493Z,65.35
2022-08-27T21:08:09.239Z,65.82
2022-08-27T21:10:35.918Z,65.09
2022-08-27T21:13:05.227Z,64.68
2022-08-27T21:15:32.883Z,65.13
2022-08-27T21:17:59.455Z,64.43
2022-08-27T21:20:26.064Z,63.95
2022-08-27T21:22:52.717Z,63.96
2022-08-27T21:25:24.587Z,63.58
2022-08-27T21:27:51.893Z,64.04
2022-08-27T21:30:22.039Z,63.70
2022-08-27T21:32:51.345Z,63.59
2022-08-27T21:35:18.020Z,64.41
2022-08-27T21:37:44.636Z,64.15
2022-08-27T21:40:11.658Z,64.64
2022-08-27T21:42:38.249Z,64.31
2022-08-27T21:45:05.431Z,63.54
2022-08-27T21:47:32.070Z,63.92
2022-08-27T21:49:58.625Z,63.71
2022-08-27T21:52:25.237Z,64.04
2022-08-27T21:54:51.811Z,63.92
2022-08-27T21:57:19.727Z,63.86
2022-08-27T21:59:48.802Z,63.59
2022-08-27T22:05:04.031Z,64.95
2022-08-27T22:07:30.587Z,64.49
2022-08-27T22:09:57.158Z,64.98
2022-08-27T22:12:24.462Z,65.01
2022-08-27T22:14:53.209Z,64.70
2022-08-27T22:17:19.775Z,64.70
2022-08-27T22:19:46.321Z,65.31
2022-08-27T22:22:12.939Z,65.49
2022-08-27T22:24:39.490Z,65.23
2022-08-27T22:27:06.275Z,65.22
2022-08-27T22:29:33.087Z,65.11
2022-08-27T22:31:59.637Z,65.65
2022-08-27T22:34:26.214Z,65.92
2022-08-27T22:36:53.076Z,65.90
2022-08-27T22:39:21.142Z,66.11
2022-08-27T22:41:49.740Z,65.95
2022-08-27T22:44:17.999Z,66.83
2022-08-27T22:46:44.642Z,66.86
2022-08-27T22:49:11.215Z,66.39
2022-08-27T22:51:37.839Z,66.50
2022-08-27T22:54:04.554Z,66.41
2022-08-27T22:56:31.108Z,66.70
2022-08-27T22:58:57.644Z,67.17
2022-08-27T23:01:25.126Z,66.96
2022-08-27T23:03:53.112Z,67.07
2022-08-27T23:06:19.748Z,67.47
2022-08-27T23:08:46.715Z,68.21
2022-08-27T23:11:13.303Z,68.29
2022-08-27T23:13:41.140Z,68.16
2022-08-27T23:16:09.902Z,68.40
2022-08-27T23:18:38.951Z,69.14
2022-08-27T23:21:06.103Z,69.09
2022-08-27T23:23:34.232Z,68.95
2022-08-27T23:26:19.422Z,69.56
2022-08-27T23:28:46.046Z,70.59
2022-08-27T23:31:13.895Z,70.33
2022-08-27T23:33:41.228Z,70.11
2022-08-27T23:36:08.230Z,70.59
2022-08-27T23:38:34.819Z,70.75
2022-08-27T23:41:01.486Z,71.17
2022-08-27T23:43:28.191Z,70.78
2022-08-27T23:45:54.780Z,71.24
2022-08-27T23:48:21.380Z,70.98
2022-08-27T23:50:48.008Z,71.06
2022-08-27T23:53:15.012Z,71.42
2022-08-27T23:55:41.653Z,71.33
2022-08-27T23:58:09.183Z,70.93
